Time;durP1;ratioP1;P1;durP2;ratioP2;P2;SDS_P1;SDS_P2;PMS_P1;PMS_P2;Temp;Humidity;BMP_temperature;BMP_pressure;BME280_temperature;BME280_humidity;BME280_pressure;Samples;Min_cycle;Max_cycle;Signal;HPM_P1;HPM_P2
2022/12/27 00:02:18;;;;;;;;;;;;;;;4.74;74.86;98813.47;4990399;28;3802;-84
2022/12/27 00:04:44;;;;;;;;;;;;;;;4.76;74.63;98819.38;4974584;28;2272;-83
2022/12/27 00:07:11;;;;;;;;;;;;;;;4.75;74.84;98828.44;4974154;28;2268;-82
2022/12/27 00:09:37;;;;;;;;;;;;;;;4.74;74.44;98822.28;4980307;28;3102;-83
2022/12/27 00:12:04;;;;;;;;;;;;;;;4.76;74.59;98833.56;4976868;28;2099;-82
2022/12/27 00:14:30;;;;;;;;;;;;;;;4.74;74.62;98824.16;4991322;28;2134;-82
2022/12/27 00:16:57;;;;;;;;;;;;;;;4.74;74.67;98816.94;4976831;28;2190;-81
2022/12/27 00:19:23;;;;;;;;;;;;;;;4.70;74.71;98815.75;4975822;28;2081;-83
2022/12/27 00:21:50;;;;;;;;;;;;;;;4.75;74.54;98813.25;4977381;28;2154;-83
2022/12/27 00:24:16;;;;;;;;;;;;;;;4.76;74.51;98814.03;4978086;28;2316;-83
2022/12/27 00:26:43;;;;;;;;;;;;;;;4.69;74.87;98811.47;4976405;28;2400;-82
2022/12/27 00:29:09;;;;;;;;;;;;;;;4.71;74.82;98797.94;4972348;28;4226;-83
2022/12/27 00:31:36;;;;;;;;;;;;;;;4.69;74.73;98802.66;4988464;28;2098;-81
2022/12/27 00:34:02;;;;;;;;;;;;;;;4.67;74.86;98810.88;4968868;28;2515;-82
2022/12/27 00:36:29;;;;;;;;;;;;;;;4.68;74.59;98809.03;4978357;28;2146;-82
2022/12/27 00:38:56;;;;;;;;;;;;;;;4.68;74.91;98809.03;4976174;28;2404;-82
2022/12/27 00:41:22;;;;;;;;;;;;;;;4.72;74.68;98807.53;4990444;28;2117;-82
2022/12/27 00:43:49;;;;;;;;;;;;;;;4.69;74.87;98822.13;4992000;28;2094;-83
2022/12/27 00:46:15;;;;;;;;;;;;;;;4.68;74.79;98811.72;4972926;28;2608;-82
2022/12/27 00:48:42;;;;;;;;;;;;;;;4.67;74.32;98816.19;4990423;28;2194;-82
2022/12/27 00:51:08;;;;;;;;;;;;;;;4.68;74.90;98828.53;4990128;28;2096;-81
2022/12/27 00:53:35;;;;;;;;;;;;;;;4.68;74.80;98817.03;4972860;28;2152;-84
2022/12/27 00:56:02;;;;;;;;;;;;;;;4.69;74.60;98810.66;4975652;28;2238;-84
2022/12/27 00:58:28;;;;;;;;;;;;;;;4.67;74.68;98815.41;4973662;28;2103;-82
2022/12/27 01:00:55;;;;;;;;;;;;;;;4.68;74.65;98817.03;4989214;28;2161;-81
2022/12/27 01:03:21;;;;;;;;;;;;;;;4.70;74.54;98821.09;4976654;28;2075;-80
2022/12/27 01:05:48;;;;;;;;;;;;;;;4.65;74.72;98810.28;4995464;28;2148;-81
2022/12/27 01:08:14;;;;;;;;;;;;;;;4.65;74.64;98815.63;4964281;28;2031;-81
2022/12/27 01:10:41;;;;;;;;;;;;;;;4.67;74.74;98826.06;4976123;28;2802;-82
2022/12/27 01:13:07;;;;;;;;;;;;;;;4.63;74.87;98816.88;4978115;28;2117;-82
2022/12/27 01:15:34;;;;;;;;;;;;;;;4.62;74.66;98805.41;4973241;28;1948;-81
2022/12/27 01:18:00;;;;;;;;;;;;;;;4.63;74.56;98804.38;4976727;28;1198;-80
2022/12/27 01:20:27;;;;;;;;;;;;;;;4.63;75.07;98801.69;4974880;28;2196;-81
2022/12/27 01:22:54;;;;;;;;;;;;;;;4.61;74.54;98803.75;4970617;28;2169;-81
2022/12/27 01:25:20;;;;;;;;;;;;;;;4.60;74.75;98802.16;4972233;28;2467;-81
2022/12/27 01:27:47;;;;;;;;;;;;;;;4.61;74.86;98803.75;4975452;28;2070;-81
2022/12/27 01:30:14;;;;;;;;;;;;;;;4.63;74.83;98808.88;4964110;28;2071;-82
2022/12/27 01:32:40;;;;;;;;;;;;;;;4.61;74.80;98813.63;4960103;28;2052;-82
2022/12/27 01:35:07;;;;;;;;;;;;;;;4.62;74.88;98804.56;4951060;28;2097;-80
2022/12/27 01:37:33;;;;;;;;;;;;;;;4.62;74.70;98813.41;4964201;28;4566;-81
2022/12/27 01:40:00;;;;;;;;;;;;;;;4.64;74.74;98813.97;4960705;28;4570;-82
2022/12/27 01:45:11;;;;;;;;;;;;;;;4.64;74.58;98811.31;4966364;28;3730;-81
2022/12/27 01:47:37;;;;;;;;;;;;;;;4.66;74.45;98814.59;4968376;28;2120;-83
2022/12/27 01:50:04;;;;;;;;;;;;;;;4.64;74.43;98807.84;4965438;28;2103;-81
2022/12/27 01:52:30;;;;;;;;;;;;;;;4.64;74.58;98808.66;4983842;28;2136;-82
2022/12/27 01:54:57;;;;;;;;;;;;;;;4.63;74.46;98801.69;4968500;28;1709;-83
2022/12/27 01:57:23;;;;;;;;;;;;;;;4.65;74.52;98796.16;4965640;28;3794;-82
2022/12/27 01:59:50;;;;;;;;;;;;;;;4.66;74.62;98792.44;4954875;28;2083;-82
2022/12/27 02:02:17;;;;;;;;;;;;;;;4.66;74.40;98787.09;4959375;28;1806;-82
2022/12/27 02:04:43;;;;;;;;;;;;;;;4.66;74.51;98801.25;4963762;28;1709;-83
2022/12/27 02:07:10;;;;;;;;;;;;;;;4.62;74.66;98793.91;4962597;28;2017;-82
2022/12/27 02:09:36;;;;;;;;;;;;;;;4.61;74.65;98786.97;4965279;28;2082;-82
2022/12/27 02:12:03;;;;;;;;;;;;;;;4.58;74.63;98779.41;4956902;28;2159;-82
2022/12/27 02:14:29;;;;;;;;;;;;;;;4.59;74.85;98779.19;4973891;28;1743;-83
2022/12/27 02:16:56;;;;;;;;;;;;;;;4.63;74.73;98788.38;4971198;28;1905;-82
2022/12/27 02:19:22;;;;;;;;;;;;;;;4.65;74.54;98783.63;4969082;28;2114;-83
2022/12/27 02:21:49;;;;;;;;;;;;;;;4.63;74.62;98793.69;4959725;28;2079;-81
2022/12/27 02:24:14;;;;;;;;;;;;;;;4.60;74.65;98788.00;4961518;28;2064;-82
2022/12/27 02:26:41;;;;;;;;;;;;;;;4.59;74.69;98797.88;4961871;28;2146;-83
2022/12/27 02:29:08;;;;;;;;;;;;;;;4.58;74.72;98800.75;4965990;28;1865;-82
2022/12/27 02:31:37;;;;;;;;;;;;;;;4.60;74.58;98806.66;4963615;28;2046;-82
2022/12/27 02:34:04;;;;;;;;;;;;;;;4.62;74.54;98805.41;4963904;28;2601;-82
2022/12/27 02:36:31;;;;;;;;;;;;;;;4.55;74.64;98797.47;4964006;28;1628;-82
2022/12/27 02:38:57;;;;;;;;;;;;;;;4.55;74.53;98786.81;4960434;28;1763;-82
2022/12/27 02:55:19;;;;;;;;;;;;;;;4.61;74.33;98795.75;4924725;29;1559;-82
2022/12/27 02:57:44;;;;;;;;;;;;;;;4.62;74.27;98783.25;4960710;28;2356;-82
2022/12/27 03:05:39;;;;;;;;;;;;;;;4.61;74.37;98769.09;4959937;28;2352;-82
2022/12/27 03:08:06;;;;;;;;;;;;;;;4.58;74.25;98764.22;4961056;28;2125;-83
2022/12/27 03:16:01;;;;;;;;;;;;;;;4.61;74.19;98773.63;4943446;28;2036;-83
2022/12/27 03:18:28;;;;;;;;;;;;;;;4.62;74.15;98770.75;4949756;29;1890;-82
2022/12/27 03:26:23;;;;;;;;;;;;;;;4.51;74.44;98776.81;4946325;29;2096;-83
2022/12/27 03:34:37;;;;;;;;;;;;;;;4.57;74.33;98778.59;4946991;29;1879;-82
2022/12/27 03:39:48;;;;;;;;;;;;;;;4.59;74.06;98781.88;4952396;29;2040;-82
2022/12/27 03:44:59;;;;;;;;;;;;;;;4.64;73.99;98776.66;4950967;29;2095;-83
2022/12/27 03:47:24;;;;;;;;;;;;;;;4.62;73.98;98786.75;4950059;29;2304;-82
2022/12/27 03:49:51;;;;;;;;;;;;;;;4.60;74.20;98780.00;4936990;29;2148;-82
2022/12/27 03:52:18;;;;;;;;;;;;;;;4.59;74.20;98789.88;4937914;29;2171;-82
2022/12/27 03:54:45;;;;;;;;;;;;;;;4.59;74.12;98786.34;4951934;29;2103;-82
2022/12/27 03:57:11;;;;;;;;;;;;;;;4.61;74.19;98779.75;4949883;29;2071;-81
2022/12/27 03:59:38;;;;;;;;;;;;;;;4.61;74.36;98782.44;4951350;29;2142;-83
2022/12/27 04:02:04;;;;;;;;;;;;;;;4.62;73.86;98783.25;4952318;28;2183;-82
2022/12/27 04:04:31;;;;;;;;;;;;;;;4.66;73.81;98789.78;4951919;28;2237;-82
2022/12/27 04:06:57;;;;;;;;;;;;;;;4.73;73.60;98801.16;4955611;28;2045;-82
2022/12/27 04:36:46;;;;;;;;;;;;;;;4.80;73.28;98799.25;4969179;28;1901;-82
2022/12/27 04:39:13;;;;;;;;;;;;;;;4.69;73.67;98800.00;4987300;28;1728;-82
2022/12/27 04:55:19;;;;;;;;;;;;;;;4.71;73.54;98803.25;4988963;28;2279;-84
2022/12/27 04:57:46;;;;;;;;;;;;;;;4.66;73.63;98811.09;4979557;28;2296;-83
2022/12/27 05:02:56;;;;;;;;;;;;;;;4.64;73.63;98821.97;4979158;28;3435;-83
2022/12/27 05:05:23;;;;;;;;;;;;;;;4.59;73.82;98813.88;4982289;28;2276;-83
2022/12/27 05:16:01;;;;;;;;;;;;;;;4.68;73.57;98833.03;4971387;28;2208;-82
2022/12/27 05:18:28;;;;;;;;;;;;;;;4.68;73.39;98830.38;4970943;28;2193;-83
2022/12/27 05:20:55;;;;;;;;;;;;;;;4.68;73.77;98843.72;4971283;28;2214;-82
2022/12/27 05:26:06;;;;;;;;;;;;;;;4.64;73.69;98840.66;4969062;28;2116;-84
2022/12/27 05:28:32;;;;;;;;;;;;;;;4.62;73.98;98841.91;4970459;28;2619;-82
2022/12/27 05:30:59;;;;;;;;;;;;;;;4.63;73.73;98847.03;4984680;28;2251;-83
2022/12/27 05:33:25;;;;;;;;;;;;;;;4.69;73.66;98853.34;4969312;28;2267;-82
2022/12/27 05:35:52;;;;;;;;;;;;;;;4.65;73.69;98855.63;4969855;28;2114;-83
2022/12/27 05:38:18;;;;;;;;;;;;;;;4.71;73.47;98857.41;4981641;28;2041;-83
2022/12/27 05:40:45;;;;;;;;;;;;;;;4.70;73.52;98860.28;4974155;28;2077;-82
2022/12/27 05:43:11;;;;;;;;;;;;;;;4.73;73.48;98849.16;4976199;28;1281;-82
2022/12/27 05:45:38;;;;;;;;;;;;;;;4.75;73.20;98857.78;4974012;28;2039;-83
2022/12/27 05:48:04;;;;;;;;;;;;;;;4.69;73.62;98859.47;4971727;28;2274;-82
2022/12/27 05:50:31;;;;;;;;;;;;;;;4.66;73.52;98864.44;4966623;28;2573;-83
2022/12/27 05:52:57;;;;;;;;;;;;;;;4.80;73.13;98857.13;4972184;28;2144;-82
2022/12/27 05:55:24;;;;;;;;;;;;;;;4.75;73.39;98868.44;4971913;28;2141;-83
2022/12/27 05:57:51;;;;;;;;;;;;;;;4.72;73.30;98852.88;4971330;28;2016;-83
2022/12/27 06:00:17;;;;;;;;;;;;;;;4.73;73.44;98873.16;4966796;28;2141;-82
2022/12/27 06:02:44;;;;;;;;;;;;;;;4.73;73.38;98879.31;4967242;28;2033;-83
2022/12/27 06:05:11;;;;;;;;;;;;;;;4.76;73.22;98888.72;4968592;28;2046;-84
2022/12/27 06:07:38;;;;;;;;;;;;;;;4.70;73.47;98889.63;4963522;28;1651;-83
2022/12/27 06:10:04;;;;;;;;;;;;;;;4.78;73.28;98892.00;4965642;28;1877;-83
2022/12/27 06:12:31;;;;;;;;;;;;;;;4.75;73.24;98898.59;4970725;28;2654;-83
2022/12/27 06:14:57;;;;;;;;;;;;;;;4.80;73.18;98895.28;4973242;28;2182;-83
2022/12/27 06:17:24;;;;;;;;;;;;;;;4.77;73.44;98893.84;4967892;28;1925;-82
2022/12/27 06:19:51;;;;;;;;;;;;;;;4.81;73.29;98896.88;4982430;23;3666;-87
2022/12/27 06:22:17;;;;;;;;;;;;;;;4.84;73.02;98896.44;4956753;28;2183;-87
2022/12/27 06:24:44;;;;;;;;;;;;;;;4.88;72.85;98902.13;4955206;29;1448;-87
2022/12/27 06:27:11;;;;;;;;;;;;;;;4.81;73.21;98912.09;4950801;28;2220;-86
2022/12/27 06:29:37;;;;;;;;;;;;;;;4.86;72.71;98915.72;4947778;28;2775;-85
2022/12/27 06:32:04;;;;;;;;;;;;;;;4.92;72.72;98919.34;4954550;28;2082;-87
2022/12/27 06:34:30;;;;;;;;;;;;;;;4.90;72.65;98922.22;4954663;29;2231;-86
2022/12/27 06:36:57;;;;;;;;;;;;;;;4.89;72.78;98933.13;4951695;28;2243;-86
2022/12/27 06:39:23;;;;;;;;;;;;;;;4.93;72.79;98939.66;4951916;28;4927;-86
2022/12/27 06:41:53;;;;;;;;;;;;;;;4.92;72.54;98938.84;4958617;28;3770;-86
2022/12/27 06:44:20;;;;;;;;;;;;;;;4.95;72.66;98945.59;4939664;28;3869;-87
2022/12/27 06:46:47;;;;;;;;;;;;;;;4.93;72.75;98950.31;4938395;28;2142;-86
2022/12/27 06:49:13;;;;;;;;;;;;;;;4.95;72.83;98962.41;4954202;28;2433;-86
2022/12/27 06:51:40;;;;;;;;;;;;;;;4.90;73.08;98962.25;4966358;28;2309;-86
2022/12/27 06:54:06;;;;;;;;;;;;;;;4.98;72.77;98971.81;4964832;28;1782;-86
2022/12/27 06:56:33;;;;;;;;;;;;;;;5.04;72.44;98968.25;4935172;28;1759;-86
2022/12/27 06:58:59;;;;;;;;;;;;;;;5.03;72.35;98969.31;4934280;29;2048;-87
2022/12/27 07:01:26;;;;;;;;;;;;;;;4.99;72.40;98974.25;4945598;28;1983;-89
2022/12/27 07:03:53;;;;;;;;;;;;;;;5.05;72.16;98977.09;4950479;28;1400;-87
2022/12/27 07:06:20;;;;;;;;;;;;;;;4.97;72.61;98979.00;4951706;28;2697;-86
2022/12/27 07:08:46;;;;;;;;;;;;;;;4.99;72.67;98992.94;4951629;28;2107;-86
2022/12/27 07:11:13;;;;;;;;;;;;;;;5.01;72.53;98984.72;4949522;28;2025;-86
2022/12/27 07:13:39;;;;;;;;;;;;;;;5.07;72.30;98985.69;4948634;28;4872;-86
2022/12/27 07:16:06;;;;;;;;;;;;;;;5.03;72.55;98992.50;4949730;28;4793;-86
2022/12/27 07:18:32;;;;;;;;;;;;;;;5.06;72.38;99003.56;4955090;28;2229;-86
2022/12/27 07:20:59;;;;;;;;;;;;;;;5.07;72.29;99013.19;4973743;28;2142;-86
2022/12/27 07:23:26;;;;;;;;;;;;;;;4.98;72.58;99017.19;4972180;28;2244;-85
2022/12/27 07:25:52;;;;;;;;;;;;;;;4.97;72.72;99026.19;4972775;28;2130;-85
2022/12/27 07:28:19;;;;;;;;;;;;;;;4.97;72.64;99037.72;4963930;28;2248;-89
2022/12/27 07:30:45;;;;;;;;;;;;;;;5.01;72.46;99049.56;4968289;28;2031;-86
2022/12/27 07:33:12;;;;;;;;;;;;;;;4.93;72.87;99049.03;4947551;28;3882;-88
2022/12/27 07:35:39;;;;;;;;;;;;;;;5.01;72.78;99064.78;4972099;28;2210;-87
2022/12/27 07:38:05;;;;;;;;;;;;;;;4.99;72.85;99081.00;4973118;28;2235;-88
2022/12/27 07:40:32;;;;;;;;;;;;;;;4.96;72.74;99088.63;4946642;28;3939;-86
2022/12/27 07:42:58;;;;;;;;;;;;;;;4.99;72.57;99091.66;4963677;28;2504;-86
2022/12/27 07:45:25;;;;;;;;;;;;;;;4.97;72.69;99099.09;4971914;28;3415;-87
2022/12/27 07:47:52;;;;;;;;;;;;;;;4.97;72.95;99099.09;4987896;28;1342;-88
2022/12/27 07:50:18;;;;;;;;;;;;;;;5.01;72.76;99092.28;4975600;28;1866;-87
2022/12/27 07:52:45;;;;;;;;;;;;;;;4.98;72.88;99099.91;4974668;28;2158;-87
2022/12/27 07:55:11;;;;;;;;;;;;;;;5.05;72.58;99107.84;4977617;28;1980;-87
2022/12/27 07:57:38;;;;;;;;;;;;;;;4.98;72.66;99108.72;4977922;28;2111;-87
2022/12/27 08:00:04;;;;;;;;;;;;;;;5.03;72.73;99113.41;4975383;28;2153;-87
2022/12/27 08:02:31;;;;;;;;;;;;;;;4.93;72.84;99113.88;4971596;28;2174;-87
2022/12/27 08:04:58;;;;;;;;;;;;;;;5.00;72.79;99113.84;4966683;28;1637;-87
2022/12/27 08:07:24;;;;;;;;;;;;;;;5.03;72.62;99120.56;4978735;28;1917;-88
2022/12/27 08:09:51;;;;;;;;;;;;;;;4.93;72.91;99124.56;4961177;28;1705;-88
2022/12/27 08:12:18;;;;;;;;;;;;;;;4.95;72.93;99124.34;4959026;28;2097;-88
2022/12/27 08:14:44;;;;;;;;;;;;;;;4.91;73.22;99137.31;4971720;28;2224;-87
2022/12/27 08:17:11;;;;;;;;;;;;;;;4.96;72.93;99136.66;4963431;28;2179;-88
2022/12/27 08:19:37;;;;;;;;;;;;;;;4.97;72.81;99152.47;4977462;28;2072;-88
2022/12/27 08:22:05;;;;;;;;;;;;;;;4.97;72.90;99155.13;4979424;28;2134;-88
2022/12/27 08:24:31;;;;;;;;;;;;;;;5.02;72.72;99159.78;4973075;28;2180;-88
2022/12/27 08:26:58;;;;;;;;;;;;;;;4.98;72.91;99175.41;4971529;28;2171;-88
2022/12/27 08:29:24;;;;;;;;;;;;;;;4.99;72.82;99179.72;4964490;28;2085;-88
2022/12/27 08:31:51;;;;;;;;;;;;;;;5.06;72.62;99174.34;4958210;28;2215;-88
2022/12/27 08:34:18;;;;;;;;;;;;;;;4.98;72.72;99187.94;4976329;28;1523;-88
2022/12/27 08:36:44;;;;;;;;;;;;;;;4.90;73.10;99189.03;4976823;28;2012;-87
2022/12/27 08:39:11;;;;;;;;;;;;;;;4.98;72.86;99190.63;4975815;28;2192;-86
2022/12/27 08:41:38;;;;;;;;;;;;;;;5.06;72.48;99193.03;4977290;28;2212;-86
2022/12/27 08:44:05;;;;;;;;;;;;;;;5.01;72.66;99200.88;4956791;28;1957;-88
2022/12/27 08:46:32;;;;;;;;;;;;;;;4.96;72.73;99203.34;4950394;28;2102;-87
2022/12/27 08:48:59;;;;;;;;;;;;;;;4.95;73.00;99213.22;4943486;28;2341;-88
2022/12/27 08:51:25;;;;;;;;;;;;;;;5.00;72.60;99218.72;4973780;28;1735;-87
2022/12/27 08:53:52;;;;;;;;;;;;;;;4.94;73.14;99221.41;4976810;28;2174;-88
2022/12/27 08:56:18;;;;;;;;;;;;;;;5.11;72.30;99222.53;4981262;28;2166;-87
2022/12/27 08:58:45;;;;;;;;;;;;;;;5.01;72.78;99228.38;4959661;28;1915;-87
2022/12/27 09:01:12;;;;;;;;;;;;;;;5.05;72.51;99239.41;4960400;28;2248;-87
2022/12/27 09:03:38;;;;;;;;;;;;;;;5.03;72.65;99240.66;4956792;28;2755;-88
2022/12/27 09:06:05;;;;;;;;;;;;;;;5.06;72.77;99240.22;4958626;28;2127;-87
2022/12/27 09:08:31;;;;;;;;;;;;;;;5.12;72.31;99236.72;4943115;29;2031;-89
2022/12/27 09:10:58;;;;;;;;;;;;;;;5.15;72.21;99250.44;4971944;28;2032;-89
2022/12/27 09:13:24;;;;;;;;;;;;;;;5.12;72.40;99252.75;4979864;28;1544;-88
2022/12/27 09:15:51;;;;;;;;;;;;;;;5.12;72.41;99253.56;4983263;28;2098;-89
2022/12/27 09:18:17;;;;;;;;;;;;;;;5.07;72.57;99260.56;4977554;28;1993;-88
2022/12/27 09:20:44;;;;;;;;;;;;;;;5.14;72.09;99272.81;4953427;28;2392;-88
2022/12/27 09:23:11;;;;;;;;;;;;;;;5.14;72.36;99272.00;4967769;28;2682;-87
2022/12/27 09:25:37;;;;;;;;;;;;;;;5.16;72.11;99272.63;4964588;28;1442;-88
2022/12/27 09:28:04;;;;;;;;;;;;;;;5.15;72.24;99282.47;4970498;28;2041;-89
2022/12/27 09:30:30;;;;;;;;;;;;;;;5.12;72.53;99290.09;4975747;28;1384;-88
2022/12/27 09:32:57;;;;;;;;;;;;;;;5.14;72.39;99291.50;4982433;28;2041;-88
2022/12/27 09:35:23;;;;;;;;;;;;;;;5.18;72.01;99307.94;4956522;28;2262;-88
2022/12/27 09:37:51;;;;;;;;;;;;;;;5.18;72.13;99314.06;4980791;28;3825;-87
2022/12/27 09:40:17;;;;;;;;;;;;;;;5.16;72.25;99312.66;4966176;28;3915;-88
2022/12/27 09:42:44;;;;;;;;;;;;;;;5.17;72.20;99311.59;4965823;28;1914;-90
2022/12/27 09:45:11;;;;;;;;;;;;;;;5.20;72.35;99317.34;4975117;28;4149;-88
2022/12/27 09:47:37;;;;;;;;;;;;;;;5.21;72.02;99316.31;4958627;28;2109;-89
2022/12/27 09:50:04;;;;;;;;;;;;;;;5.33;71.61;99331.66;4963779;28;1572;-87
2022/12/27 09:52:30;;;;;;;;;;;;;;;5.20;72.04;99340.53;4970338;28;1737;-88
2022/12/27 09:54:57;;;;;;;;;;;;;;;5.12;72.42;99346.16;4958855;28;1452;-88
2022/12/27 09:57:23;;;;;;;;;;;;;;;5.24;71.98;99355.13;4967817;28;3016;-88
2022/12/27 09:59:50;;;;;;;;;;;;;;;5.32;71.88;99362.84;4977520;28;1714;-89
2022/12/27 10:02:16;;;;;;;;;;;;;;;5.34;71.69;99362.66;4977794;28;2002;-88
2022/12/27 10:04:43;;;;;;;;;;;;;;;5.40;71.61;99359.94;4969614;28;1578;-88
2022/12/27 10:07:09;;;;;;;;;;;;;;;5.29;71.95;99349.94;4976219;28;2525;-87
2022/12/27 10:09:36;;;;;;;;;;;;;;;5.27;71.87;99349.34;4976348;28;2903;-88
2022/12/27 10:12:02;;;;;;;;;;;;;;;5.42;71.68;99351.72;4956722;28;1756;-88
2022/12/27 10:14:29;;;;;;;;;;;;;;;5.33;71.73;99351.16;4952470;28;5087;-88
2022/12/27 10:16:56;;;;;;;;;;;;;;;5.27;72.12;99346.69;4952485;28;2290;-87
2022/12/27 10:19:22;;;;;;;;;;;;;;;5.42;71.43;99360.53;4954294;28;3849;-87
2022/12/27 10:21:49;;;;;;;;;;;;;;;5.42;71.42;99373.09;4966317;28;3653;-87
2022/12/27 10:24:15;;;;;;;;;;;;;;;5.33;71.95;99366.38;4970394;28;2217;-88
2022/12/27 10:26:42;;;;;;;;;;;;;;;5.33;71.86;99359.16;4972821;28;2070;-89
2022/12/27 10:29:08;;;;;;;;;;;;;;;5.45;71.44;99369.97;4976708;28;1269;-88
2022/12/27 10:31:35;;;;;;;;;;;;;;;5.40;71.55;99378.63;4976569;28;1691;-87
2022/12/27 10:34:02;;;;;;;;;;;;;;;5.29;72.12;99376.63;4974365;28;1741;-87
2022/12/27 10:36:29;;;;;;;;;;;;;;;5.42;71.55;99376.56;4977087;28;1551;-86
2022/12/27 10:38:55;;;;;;;;;;;;;;;5.43;71.41;99377.38;4963626;28;2324;-85
2022/12/27 10:41:22;;;;;;;;;;;;;;;5.50;71.11;99382.69;4974278;28;2295;-87
2022/12/27 10:43:48;;;;;;;;;;;;;;;5.56;71.00;99404.03;4977189;28;1312;-85
2022/12/27 10:46:15;;;;;;;;;;;;;;;5.60;70.77;99407.06;4981731;28;2094;-85
2022/12/27 10:48:41;;;;;;;;;;;;;;;5.59;70.85;99411.59;4957527;28;2267;-86
2022/12/27 10:51:08;;;;;;;;;;;;;;;5.54;70.88;99410.59;4982817;28;2124;-85
2022/12/27 10:53:35;;;;;;;;;;;;;;;5.54;70.97;99406.09;4954243;28;1359;-84
2022/12/27 10:56:01;;;;;;;;;;;;;;;5.64;70.67;99411.75;4976473;28;2046;-86
2022/12/27 10:58:28;;;;;;;;;;;;;;;5.63;70.54;99412.81;4958927;28;1249;-84
2022/12/27 11:00:54;;;;;;;;;;;;;;;5.57;70.95;99421.69;4955624;28;1914;-85
2022/12/27 11:03:21;;;;;;;;;;;;;;;5.63;70.80;99414.66;4971049;28;1935;-84
2022/12/27 11:05:47;;;;;;;;;;;;;;;5.71;70.44;99438.47;4958554;28;1455;-85
2022/12/27 11:08:14;;;;;;;;;;;;;;;5.71;70.49;99449.13;4987877;28;1793;-85
2022/12/27 11:10:41;;;;;;;;;;;;;;;5.63;71.05;99457.41;4961639;28;1579;-84
2022/12/27 11:13:07;;;;;;;;;;;;;;;5.59;71.05;99449.00;4971281;28;1964;-85
2022/12/27 11:15:34;;;;;;;;;;;;;;;5.66;70.93;99463.13;4951080;28;1745;-86
2022/12/27 11:18:00;;;;;;;;;;;;;;;5.60;71.01;99463.16;4978777;28;1598;-83
2022/12/27 11:20:27;;;;;;;;;;;;;;;5.67;71.01;99474.63;4957906;28;1380;-84
2022/12/27 11:22:53;;;;;;;;;;;;;;;5.68;70.90;99481.63;4963492;28;1914;-84
2022/12/27 11:25:20;;;;;;;;;;;;;;;5.79;70.40;99491.63;4979621;28;1993;-84
2022/12/27 11:27:46;;;;;;;;;;;;;;;5.82;70.38;99487.69;4957811;28;1799;-83
2022/12/27 11:30:13;;;;;;;;;;;;;;;5.82;70.33;99477.81;4956889;28;1254;-84
2022/12/27 11:32:39;;;;;;;;;;;;;;;5.82;70.52;99479.69;4977915;28;1328;-84
2022/12/27 11:35:06;;;;;;;;;;;;;;;5.77;70.64;99482.19;4967537;28;1412;-84
2022/12/27 11:37:32;;;;;;;;;;;;;;;5.76;70.78;99481.34;4978162;28;1260;-84
2022/12/27 11:39:59;;;;;;;;;;;;;;;5.74;70.86;99487.97;4958445;28;1217;-84
2022/12/27 11:42:26;;;;;;;;;;;;;;;5.78;70.78;99487.31;4975577;28;1915;-84
2022/12/27 11:44:52;;;;;;;;;;;;;;;5.82;70.46;99485.84;4975614;28;972;-84
2022/12/27 11:47:19;;;;;;;;;;;;;;;5.95;70.33;99489.53;4956565;28;1557;-84
2022/12/27 11:49:45;;;;;;;;;;;;;;;5.89;70.23;99497.31;4973482;28;2011;-83
2022/12/27 11:52:12;;;;;;;;;;;;;;;5.84;70.50;99499.00;4955607;28;2025;-83
2022/12/27 11:54:39;;;;;;;;;;;;;;;5.83;70.72;99498.19;4956449;28;1965;-83
2022/12/27 11:57:05;;;;;;;;;;;;;;;5.83;70.81;99497.38;4964259;28;2197;-84
2022/12/27 11:59:32;;;;;;;;;;;;;;;5.86;70.52;99507.63;4953127;28;2161;-81
2022/12/27 12:01:58;;;;;;;;;;;;;;;5.89;70.47;99509.88;4973027;28;2087;-79
2022/12/27 12:04:25;;;;;;;;;;;;;;;5.83;70.63;99516.91;4954655;28;2009;-83
2022/12/27 12:06:52;;;;;;;;;;;;;;;5.82;71.05;99530.44;4953236;28;2060;-83
2022/12/27 12:09:18;;;;;;;;;;;;;;;5.77;71.05;99528.44;4956692;28;2171;-84
2022/12/27 12:11:45;;;;;;;;;;;;;;;5.72;71.23;99527.44;4955246;28;2107;-84
2022/12/27 12:14:11;;;;;;;;;;;;;;;5.77;71.11;99527.63;4971073;28;1745;-85
2022/12/27 12:16:39;;;;;;;;;;;;;;;5.82;71.01;99536.63;4970777;28;1876;-84
2022/12/27 12:19:05;;;;;;;;;;;;;;;5.65;71.51;99552.34;4965455;28;3833;-86
2022/12/27 12:21:32;;;;;;;;;;;;;;;5.73;71.46;99556.59;4962092;28;3807;-86
2022/12/27 12:23:59;;;;;;;;;;;;;;;5.67;71.67;99568.13;4960518;28;1395;-86
2022/12/27 12:26:25;;;;;;;;;;;;;;;5.64;71.79;99569.38;4958043;28;1765;-86
2022/12/27 12:28:52;;;;;;;;;;;;;;;5.65;71.94;99571.03;4964686;28;2547;-86
2022/12/27 12:31:19;;;;;;;;;;;;;;;5.68;71.91;99559.91;4975745;28;2484;-86
2022/12/27 12:33:45;;;;;;;;;;;;;;;5.68;71.69;99567.13;4957497;28;2078;-87
2022/12/27 12:36:12;;;;;;;;;;;;;;;5.73;71.69;99566.47;4957182;28;2471;-88
2022/12/27 12:38:38;;;;;;;;;;;;;;;5.84;71.32;99561.28;4954440;28;4257;-87
2022/12/27 12:41:05;;;;;;;;;;;;;;;5.59;72.08;99553.19;4966093;28;2350;-87
2022/12/27 12:43:31;;;;;;;;;;;;;;;5.65;71.94;99555.00;4948049;28;2298;-87
2022/12/27 12:45:58;;;;;;;;;;;;;;;5.70;71.89;99554.34;4975273;28;4165;-88
2022/12/27 12:48:24;;;;;;;;;;;;;;;5.75;71.65;99567.09;4988244;28;2388;-89
2022/12/27 12:50:51;;;;;;;;;;;;;;;5.61;72.24;99563.63;4971210;28;2451;-87
2022/12/27 12:53:18;;;;;;;;;;;;;;;5.58;72.26;99566.72;4979089;28;1792;-87
2022/12/27 12:55:44;;;;;;;;;;;;;;;5.65;72.55;99567.53;4966724;28;2232;-87
2022/12/27 12:58:11;;;;;;;;;;;;;;;5.65;72.22;99562.19;4982196;28;1112;-87
2022/12/27 13:00:37;;;;;;;;;;;;;;;5.67;72.17;99565.47;4977701;28;1787;-87
2022/12/27 13:03:06;;;;;;;;;;;;;;;5.66;72.19;99558.50;4973148;28;4023;-87
2022/12/27 13:05:33;;;;;;;;;;;;;;;5.67;71.94;99565.47;4972477;28;4753;-87
2022/12/27 13:07:59;;;;;;;;;;;;;;;5.65;72.19;99563.00;4968358;28;1964;-86
2022/12/27 13:10:26;;;;;;;;;;;;;;;5.64;72.15;99576.56;4979081;28;1951;-86
2022/12/27 13:12:52;;;;;;;;;;;;;;;5.66;72.10;99588.69;5003053;28;1785;-85
2022/12/27 13:15:20;;;;;;;;;;;;;;;5.55;72.63;99593.88;5001689;28;1436;-86
2022/12/27 13:17:47;;;;;;;;;;;;;;;5.56;72.75;99588.31;4962401;28;1983;-87
2022/12/27 13:20:13;;;;;;;;;;;;;;;5.60;72.55;99594.06;4958314;28;2190;-86
2022/12/27 13:22:40;;;;;;;;;;;;;;;5.65;72.23;99594.25;4976142;28;1898;-86
2022/12/27 13:25:06;;;;;;;;;;;;;;;5.67;72.23;99603.69;4971651;28;2305;-84
2022/12/27 13:27:37;;;;;;;;;;;;;;;5.53;72.83;99614.59;4961427;28;1699;-85
2022/12/27 13:30:03;;;;;;;;;;;;;;;5.51;72.92;99606.00;4956610;28;2179;-86
2022/12/27 13:32:30;;;;;;;;;;;;;;;5.62;72.68;99614.19;4957350;28;2070;-86
2022/12/27 13:34:57;;;;;;;;;;;;;;;5.59;72.72;99614.63;4964278;28;2172;-85
2022/12/27 13:37:24;;;;;;;;;;;;;;;5.54;72.78;99624.28;4951155;28;4631;-85
2022/12/27 13:39:50;;;;;;;;;;;;;;;5.57;73.01;99631.88;4971921;28;2087;-85
2022/12/27 13:42:17;;;;;;;;;;;;;;;5.52;72.72;99643.19;4977670;28;1958;-86
2022/12/27 13:44:43;;;;;;;;;;;;;;;5.59;72.88;99649.34;4962685;28;1815;-84
2022/12/27 13:47:11;;;;;;;;;;;;;;;5.55;72.86;99653.44;4959946;28;1294;-86
2022/12/27 13:49:37;;;;;;;;;;;;;;;5.63;72.82;99655.09;4977254;28;1238;-86
2022/12/27 13:52:04;;;;;;;;;;;;;;;5.59;72.41;99664.53;4983263;28;1518;-85
2022/12/27 13:54:30;;;;;;;;;;;;;;;5.59;72.69;99660.03;4978339;28;1394;-85
2022/12/27 13:56:57;;;;;;;;;;;;;;;5.63;72.79;99649.75;4959577;28;2226;-85
2022/12/27 13:59:24;;;;;;;;;;;;;;;5.67;72.34;99664.31;4953958;29;1489;-86
2022/12/27 14:01:51;;;;;;;;;;;;;;;5.57;72.94;99659.41;4965268;28;1922;-86
2022/12/27 14:04:19;;;;;;;;;;;;;;;5.63;72.76;99655.09;4976993;28;1560;-86
2022/12/27 14:06:45;;;;;;;;;;;;;;;5.66;72.66;99658.16;4957916;28;1945;-86
2022/12/27 14:09:12;;;;;;;;;;;;;;;5.62;72.76;99664.13;4980533;28;1536;-87
2022/12/27 14:11:39;;;;;;;;;;;;;;;5.71;72.69;99662.88;4956367;28;4455;-87
2022/12/27 14:14:05;;;;;;;;;;;;;;;5.68;72.49;99666.78;4961255;28;5182;-87
2022/12/27 14:16:32;;;;;;;;;;;;;;;5.67;72.73;99675.00;4959081;28;1674;-87
2022/12/27 14:18:58;;;;;;;;;;;;;;;5.69;72.66;99680.97;4975153;28;4668;-87
2022/12/27 14:21:25;;;;;;;;;;;;;;;5.82;72.13;99675.56;4977135;28;1302;-87
2022/12/27 14:23:52;;;;;;;;;;;;;;;5.67;72.62;99683.00;4959576;28;2076;-87
2022/12/27 14:26:19;;;;;;;;;;;;;;;5.66;72.89;99679.53;4957463;28;1540;-87
2022/12/27 14:28:45;;;;;;;;;;;;;;;5.75;72.26;99685.47;4965743;28;1852;-87
2022/12/27 14:31:12;;;;;;;;;;;;;;;5.76;72.38;99688.94;4976516;28;1934;-87
2022/12/27 14:33:38;;;;;;;;;;;;;;;5.79;72.14;99697.38;4978114;28;1379;-87
2022/12/27 14:36:05;;;;;;;;;;;;;;;5.66;72.63;99703.56;4957814;28;1773;-87
2022/12/27 14:38:32;;;;;;;;;;;;;;;5.73;72.42;99708.88;4947845;28;1319;-87
2022/12/27 14:40:58;;;;;;;;;;;;;;;5.75;72.55;99717.53;4953256;28;1440;-87
2022/12/27 14:43:25;;;;;;;;;;;;;;;5.72;72.77;99712.59;4956032;28;1915;-87